Greater Rochester International Airport
KROC : rendu visible

Aérodrome :











RETROUVEZ-NOUS SUR...

 
LOGIN :

S'inscrire | Disclaimer

   EN    FR    IT 

 









Légende :    VFR   VFR Marginal   IFR   IFR Intensif   IFR Très Intensif
Visi : 
Plafond : 
>= 8 km
>= 3000ft
5 à 8 km
1000 à 3000 ft
1500m à 5 km
500 à 1000 ft
800 à 1500m
200 à 500 ft
< 800m
< 200 ft
Symboles :   Orages  Brouillard  Fortes neiges  Fortes précipitations  Vent > 20 kt






- Altitude de l'aérodrome : 559 ft
- Code IATA : ROC


KROC - Greater Rochester International

DERNIER METAR :
  • 231754Z 21011KT 10SM SCT160 BKN220 07/M08 A3003 RMK AO2 SLP178 T00721078 10072 21011 58020 $

METARs EXPIRÉS :
  • 231654Z 20010KT 10SM FEW130 SCT160 BKN210 06/M08 A3006 RMK AO2 SLP186 T00611078 $
  • 231554Z 21011KT 10SM FEW110 SCT150 BKN200 OVC270 04/M08 A3008 RMK AO2 SLP194 T00441078 $

TAF KROC
Valide du 23 à 18h jusqu'au 24 à 18h UTC


231720Z 2318/2418 21010KT P6SM SCT250
FM240400 21010KT P6SM SKC WS020/24040KT
FM240900 22008KT P6SM BKN200
FM241600 26010KT P6SM BKN025



MET'MAP, la Météo Aéronautique d'un coup d'oeil ! - Copyright ORBIFLY Décembre 2007 - Disclaimer

ORBIFLY MET'MAP TEAM :

Programmation & Développement : Alexandra Zaïnal
Sur une idée originale de : Baudouin d'Aumeries
Assistance à la programmation : Marc-Olivier Méhu
Soutien technique & logistique : Manuel Goepfert

Contact : metmap@orbifly.com




SOURCES & CREDITS :

   NOAA       Earth
Advisory